sensor_id;sensor_type;location;lat;lon;timestamp;P1;durP1;ratioP1;P2;durP2;ratioP2
19848;SDS011;10085;51.120;6.956;2023-07-09T00:02:35;10.00;;;4.60;;
19848;SDS011;10085;51.120;6.956;2023-07-09T00:07:38;9.20;;;4.85;;
19848;SDS011;10085;51.120;6.956;2023-07-09T00:12:42;10.25;;;4.43;;
19848;SDS011;10085;51.120;6.956;2023-07-09T00:17:45;8.80;;;4.68;;
19848;SDS011;10085;51.120;6.956;2023-07-09T00:22:48;11.98;;;4.75;;
19848;SDS011;10085;51.120;6.956;2023-07-09T00:27:54;8.75;;;4.47;;
19848;SDS011;10085;51.120;6.956;2023-07-09T00:32:57;8.98;;;4.40;;
19848;SDS011;10085;51.120;6.956;2023-07-09T00:38:00;8.82;;;4.15;;
19848;SDS011;10085;51.120;6.956;2023-07-09T00:43:13;7.85;;;4.55;;
19848;SDS011;10085;51.120;6.956;2023-07-09T00:48:18;8.07;;;4.60;;
19848;SDS011;10085;51.120;6.956;2023-07-09T00:53:22;8.90;;;4.43;;
19848;SDS011;10085;51.120;6.956;2023-07-09T00:58:29;10.85;;;5.07;;
19848;SDS011;10085;51.120;6.956;2023-07-09T01:03:34;8.23;;;4.38;;
19848;SDS011;10085;51.120;6.956;2023-07-09T01:08:39;9.48;;;4.50;;
19848;SDS011;10085;51.120;6.956;2023-07-09T01:13:45;10.10;;;4.93;;
19848;SDS011;10085;51.120;6.956;2023-07-09T01:18:48;7.53;;;4.55;;
19848;SDS011;10085;51.120;6.956;2023-07-09T01:23:52;7.25;;;4.55;;
19848;SDS011;10085;51.120;6.956;2023-07-09T01:28:56;8.98;;;4.60;;
19848;SDS011;10085;51.120;6.956;2023-07-09T01:33:59;7.88;;;4.63;;
19848;SDS011;10085;51.120;6.956;2023-07-09T01:39:03;9.35;;;4.53;;
19848;SDS011;10085;51.120;6.956;2023-07-09T01:44:06;9.45;;;4.82;;
19848;SDS011;10085;51.120;6.956;2023-07-09T01:49:09;7.72;;;4.43;;
19848;SDS011;10085;51.120;6.956;2023-07-09T01:54:13;7.50;;;5.07;;
19848;SDS011;10085;51.120;6.956;2023-07-09T01:59:18;8.13;;;4.03;;
19848;SDS011;10085;51.120;6.956;2023-07-09T02:04:22;8.10;;;4.63;;
19848;SDS011;10085;51.120;6.956;2023-07-09T02:09:29;10.35;;;4.50;;
19848;SDS011;10085;51.120;6.956;2023-07-09T02:14:32;9.60;;;5.22;;
19848;SDS011;10085;51.120;6.956;2023-07-09T02:19:36;9.88;;;4.97;;
19848;SDS011;10085;51.120;6.956;2023-07-09T02:24:40;8.25;;;4.93;;
19848;SDS011;10085;51.120;6.956;2023-07-09T02:29:43;10.43;;;4.75;;
19848;SDS011;10085;51.120;6.956;2023-07-09T02:34:46;11.27;;;4.85;;
19848;SDS011;10085;51.120;6.956;2023-07-09T02:39:52;9.90;;;4.78;;
19848;SDS011;10085;51.120;6.956;2023-07-09T02:44:55;8.07;;;4.82;;
19848;SDS011;10085;51.120;6.956;2023-07-09T02:50:00;7.03;;;4.45;;
19848;SDS011;10085;51.120;6.956;2023-07-09T02:55:06;8.95;;;4.70;;
19848;SDS011;10085;51.120;6.956;2023-07-09T03:00:09;9.57;;;4.45;;
19848;SDS011;10085;51.120;6.956;2023-07-09T03:05:13;9.35;;;4.85;;
19848;SDS011;10085;51.120;6.956;2023-07-09T03:10:17;9.82;;;5.40;;
19848;SDS011;10085;51.120;6.956;2023-07-09T03:15:20;7.53;;;4.63;;
19848;SDS011;10085;51.120;6.956;2023-07-09T03:20:23;7.82;;;4.75;;
19848;SDS011;10085;51.120;6.956;2023-07-09T03:25:27;9.80;;;5.18;;
19848;SDS011;10085;51.120;6.956;2023-07-09T03:30:30;9.13;;;4.95;;
19848;SDS011;10085;51.120;6.956;2023-07-09T03:35:33;11.07;;;4.72;;
19848;SDS011;10085;51.120;6.956;2023-07-09T03:40:39;17.08;;;5.13;;
19848;SDS011;10085;51.120;6.956;2023-07-09T03:45:41;8.18;;;4.75;;
19848;SDS011;10085;51.120;6.956;2023-07-09T03:50:46;7.70;;;4.50;;
19848;SDS011;10085;51.120;6.956;2023-07-09T03:55:55;12.15;;;5.10;;
19848;SDS011;10085;51.120;6.956;2023-07-09T04:00:59;8.25;;;4.78;;
19848;SDS011;10085;51.120;6.956;2023-07-09T04:06:02;7.47;;;4.72;;
19848;SDS011;10085;51.120;6.956;2023-07-09T04:11:07;9.00;;;4.72;;
19848;SDS011;10085;51.120;6.956;2023-07-09T04:16:10;8.43;;;4.55;;
19848;SDS011;10085;51.120;6.956;2023-07-09T04:21:13;13.13;;;5.00;;
19848;SDS011;10085;51.120;6.956;2023-07-09T04:26:17;11.77;;;4.97;;
19848;SDS011;10085;51.120;6.956;2023-07-09T04:31:20;9.93;;;4.78;;
19848;SDS011;10085;51.120;6.956;2023-07-09T04:36:23;10.05;;;4.55;;
19848;SDS011;10085;51.120;6.956;2023-07-09T04:41:28;9.48;;;4.57;;
19848;SDS011;10085;51.120;6.956;2023-07-09T04:46:31;12.68;;;4.30;;
19848;SDS011;10085;51.120;6.956;2023-07-09T04:51:34;8.80;;;4.22;;
19848;SDS011;10085;51.120;6.956;2023-07-09T04:56:38;8.50;;;4.85;;
19848;SDS011;10085;51.120;6.956;2023-07-09T05:01:41;7.63;;;4.28;;
19848;SDS011;10085;51.120;6.956;2023-07-09T05:06:44;10.77;;;5.00;;
19848;SDS011;10085;51.120;6.956;2023-07-09T05:11:48;9.50;;;4.32;;
19848;SDS011;10085;51.120;6.956;2023-07-09T05:16:51;12.25;;;4.70;;
19848;SDS011;10085;51.120;6.956;2023-07-09T05:21:54;7.78;;;4.68;;
19848;SDS011;10085;51.120;6.956;2023-07-09T05:26:58;9.13;;;4.30;;
19848;SDS011;10085;51.120;6.956;2023-07-09T05:32:01;11.63;;;4.32;;
19848;SDS011;10085;51.120;6.956;2023-07-09T05:37:04;8.32;;;4.55;;
19848;SDS011;10085;51.120;6.956;2023-07-09T05:42:09;7.05;;;4.65;;
19848;SDS011;10085;51.120;6.956;2023-07-09T05:47:12;8.75;;;4.60;;
19848;SDS011;10085;51.120;6.956;2023-07-09T05:52:14;7.80;;;4.50;;
19848;SDS011;10085;51.120;6.956;2023-07-09T05:57:19;8.43;;;4.35;;
19848;SDS011;10085;51.120;6.956;2023-07-09T06:02:22;6.82;;;4.25;;
19848;SDS011;10085;51.120;6.956;2023-07-09T06:07:25;9.95;;;4.82;;
19848;SDS011;10085;51.120;6.956;2023-07-09T06:12:30;7.82;;;3.92;;
19848;SDS011;10085;51.120;6.956;2023-07-09T06:17:33;8.93;;;4.30;;
19848;SDS011;10085;51.120;6.956;2023-07-09T06:22:36;5.82;;;4.05;;
19848;SDS011;10085;51.120;6.956;2023-07-09T06:27:40;5.90;;;4.38;;
19848;SDS011;10085;51.120;6.956;2023-07-09T06:32:43;7.15;;;4.70;;
19848;SDS011;10085;51.120;6.956;2023-07-09T06:37:46;7.18;;;4.18;;
19848;SDS011;10085;51.120;6.956;2023-07-09T06:42:50;10.73;;;4.50;;
19848;SDS011;10085;51.120;6.956;2023-07-09T06:48:00;8.05;;;4.80;;
19848;SDS011;10085;51.120;6.956;2023-07-09T06:53:03;10.60;;;5.10;;
19848;SDS011;10085;51.120;6.956;2023-07-09T06:58:07;9.27;;;4.65;;
19848;SDS011;10085;51.120;6.956;2023-07-09T07:03:10;7.68;;;4.68;;
19848;SDS011;10085;51.120;6.956;2023-07-09T07:08:14;8.27;;;4.88;;
19848;SDS011;10085;51.120;6.956;2023-07-09T07:13:19;7.22;;;4.07;;
19848;SDS011;10085;51.120;6.956;2023-07-09T07:18:22;7.38;;;4.47;;
19848;SDS011;10085;51.120;6.956;2023-07-09T07:23:25;8.45;;;4.30;;
19848;SDS011;10085;51.120;6.956;2023-07-09T07:28:29;7.97;;;4.55;;
19848;SDS011;10085;51.120;6.956;2023-07-09T07:33:32;8.18;;;4.18;;
19848;SDS011;10085;51.120;6.956;2023-07-09T07:38:35;6.75;;;3.90;;
19848;SDS011;10085;51.120;6.956;2023-07-09T07:43:40;4.90;;;3.55;;
19848;SDS011;10085;51.120;6.956;2023-07-09T07:48:43;6.15;;;4.00;;
19848;SDS011;10085;51.120;6.956;2023-07-09T07:53:45;4.88;;;3.60;;
19848;SDS011;10085;51.120;6.956;2023-07-09T07:58:50;5.65;;;4.05;;
19848;SDS011;10085;51.120;6.956;2023-07-09T08:03:52;9.15;;;3.50;;
19848;SDS011;10085;51.120;6.956;2023-07-09T08:08:55;5.10;;;3.75;;
19848;SDS011;10085;51.120;6.956;2023-07-09T08:14:00;5.55;;;3.38;;
19848;SDS011;10085;51.120;6.956;2023-07-09T08:19:03;4.53;;;3.53;;
19848;SDS011;10085;51.120;6.956;2023-07-09T08:24:06;4.65;;;3.35;;
19848;SDS011;10085;51.120;6.956;2023-07-09T08:29:11;7.40;;;3.63;;
19848;SDS011;10085;51.120;6.956;2023-07-09T08:34:13;4.60;;;3.38;;
19848;SDS011;10085;51.120;6.956;2023-07-09T08:39:16;4.63;;;3.15;;
19848;SDS011;10085;51.120;6.956;2023-07-09T08:44:25;5.07;;;3.38;;
19848;SDS011;10085;51.120;6.956;2023-07-09T08:49:46;3.78;;;3.08;;
19848;SDS011;10085;51.120;6.956;2023-07-09T08:54:51;5.13;;;3.30;;
19848;SDS011;10085;51.120;6.956;2023-07-09T08:59:56;4.78;;;3.45;;
19848;SDS011;10085;51.120;6.956;2023-07-09T09:05:17;4.45;;;3.10;;
19848;SDS011;10085;51.120;6.956;2023-07-09T09:10:23;4.13;;;3.33;;
19848;SDS011;10085;51.120;6.956;2023-07-09T09:15:33;4.57;;;3.25;;
19848;SDS011;10085;51.120;6.956;2023-07-09T09:20:36;4.38;;;3.17;;
19848;SDS011;10085;51.120;6.956;2023-07-09T09:25:40;5.07;;;3.30;;
19848;SDS011;10085;51.120;6.956;2023-07-09T09:30:45;4.63;;;3.20;;
19848;SDS011;10085;51.120;6.956;2023-07-09T09:35:48;4.22;;;3.22;;
19848;SDS011;10085;51.120;6.956;2023-07-09T09:40:52;5.78;;;3.38;;
19848;SDS011;10085;51.120;6.956;2023-07-09T09:46:06;4.07;;;3.17;;
19848;SDS011;10085;51.120;6.956;2023-07-09T09:51:09;5.80;;;3.28;;
19848;SDS011;10085;51.120;6.956;2023-07-09T09:56:13;4.28;;;3.28;;
19848;SDS011;10085;51.120;6.956;2023-07-09T10:01:21;4.20;;;2.80;;
19848;SDS011;10085;51.120;6.956;2023-07-09T10:06:33;4.30;;;2.80;;
19848;SDS011;10085;51.120;6.956;2023-07-09T10:11:39;5.30;;;2.88;;
19848;SDS011;10085;51.120;6.956;2023-07-09T10:16:49;5.35;;;3.03;;
19848;SDS011;10085;51.120;6.956;2023-07-09T10:21:59;4.18;;;3.00;;
19848;SDS011;10085;51.120;6.956;2023-07-09T10:27:03;3.35;;;2.72;;
19848;SDS011;10085;51.120;6.956;2023-07-09T10:32:16;4.00;;;2.90;;
19848;SDS011;10085;51.120;6.956;2023-07-09T10:37:29;4.28;;;2.90;;
19848;SDS011;10085;51.120;6.956;2023-07-09T10:43:04;4.05;;;2.70;;
19848;SDS011;10085;51.120;6.956;2023-07-09T10:53:50;3.75;;;3.10;;
19848;SDS011;10085;51.120;6.956;2023-07-09T10:58:58;5.22;;;3.05;;
19848;SDS011;10085;51.120;6.956;2023-07-09T11:04:10;6.60;;;2.90;;
19848;SDS011;10085;51.120;6.956;2023-07-09T11:09:20;3.90;;;2.80;;
19848;SDS011;10085;51.120;6.956;2023-07-09T11:14:37;4.10;;;2.83;;
19848;SDS011;10085;51.120;6.956;2023-07-09T11:20:23;14.55;;;5.80;;
19848;SDS011;10085;51.120;6.956;2023-07-09T11:25:31;14.65;;;5.72;;
19848;SDS011;10085;51.120;6.956;2023-07-09T11:30:46;11.30;;;5.10;;
19848;SDS011;10085;51.120;6.956;2023-07-09T11:35:53;8.70;;;4.63;;
19848;SDS011;10085;51.120;6.956;2023-07-09T11:41:22;9.68;;;4.78;;
19848;SDS011;10085;51.120;6.956;2023-07-09T11:46:28;7.10;;;4.20;;
19848;SDS011;10085;51.120;6.956;2023-07-09T11:51:37;8.98;;;4.20;;
19848;SDS011;10085;51.120;6.956;2023-07-09T11:56:53;8.70;;;4.20;;
19848;SDS011;10085;51.120;6.956;2023-07-09T12:01:56;7.10;;;3.85;;
19848;SDS011;10085;51.120;6.956;2023-07-09T12:07:14;9.55;;;3.60;;
19848;SDS011;10085;51.120;6.956;2023-07-09T12:12:19;7.43;;;3.58;;
19848;SDS011;10085;51.120;6.956;2023-07-09T12:17:23;6.63;;;3.80;;
19848;SDS011;10085;51.120;6.956;2023-07-09T12:22:29;6.53;;;3.17;;
19848;SDS011;10085;51.120;6.956;2023-07-09T12:27:32;9.00;;;3.92;;
19848;SDS011;10085;51.120;6.956;2023-07-09T12:32:42;6.95;;;3.70;;
19848;SDS011;10085;51.120;6.956;2023-07-09T12:37:48;5.88;;;3.22;;
19848;SDS011;10085;51.120;6.956;2023-07-09T12:42:54;6.90;;;3.40;;
19848;SDS011;10085;51.120;6.956;2023-07-09T12:47:58;8.52;;;3.53;;
19848;SDS011;10085;51.120;6.956;2023-07-09T12:53:03;6.35;;;3.30;;
19848;SDS011;10085;51.120;6.956;2023-07-09T12:58:16;5.75;;;3.45;;
19848;SDS011;10085;51.120;6.956;2023-07-09T13:03:24;6.90;;;3.28;;
19848;SDS011;10085;51.120;6.956;2023-07-09T13:08:40;4.63;;;3.10;;
19848;SDS011;10085;51.120;6.956;2023-07-09T13:13:53;6.15;;;3.53;;
19848;SDS011;10085;51.120;6.956;2023-07-09T13:18:57;5.72;;;3.10;;
19848;SDS011;10085;51.120;6.956;2023-07-09T13:30:53;4.95;;;3.13;;
19848;SDS011;10085;51.120;6.956;2023-07-09T13:41:29;5.10;;;3.22;;
19848;SDS011;10085;51.120;6.956;2023-07-09T13:46:34;3.90;;;3.00;;
19848;SDS011;10085;51.120;6.956;2023-07-09T13:51:38;3.97;;;2.60;;
19848;SDS011;10085;51.120;6.956;2023-07-09T13:56:41;4.28;;;3.25;;
19848;SDS011;10085;51.120;6.956;2023-07-09T14:01:47;4.22;;;2.63;;
19848;SDS011;10085;51.120;6.956;2023-07-09T14:06:50;3.78;;;3.13;;
19848;SDS011;10085;51.120;6.956;2023-07-09T14:11:53;4.07;;;3.13;;
19848;SDS011;10085;51.120;6.956;2023-07-09T14:16:57;4.75;;;2.95;;
19848;SDS011;10085;51.120;6.956;2023-07-09T14:22:01;6.10;;;3.13;;
19848;SDS011;10085;51.120;6.956;2023-07-09T14:27:04;4.05;;;2.97;;
19848;SDS011;10085;51.120;6.956;2023-07-09T14:32:26;5.25;;;3.25;;
19848;SDS011;10085;51.120;6.956;2023-07-09T14:37:39;8.57;;;3.60;;
19848;SDS011;10085;51.120;6.956;2023-07-09T14:42:42;5.85;;;3.25;;
19848;SDS011;10085;51.120;6.956;2023-07-09T14:47:47;6.80;;;3.60;;
19848;SDS011;10085;51.120;6.956;2023-07-09T14:52:50;6.45;;;3.20;;
19848;SDS011;10085;51.120;6.956;2023-07-09T14:57:53;7.57;;;3.08;;
19848;SDS011;10085;51.120;6.956;2023-07-09T15:02:57;6.22;;;3.40;;
19848;SDS011;10085;51.120;6.956;2023-07-09T15:08:00;7.03;;;3.38;;
19848;SDS011;10085;51.120;6.956;2023-07-09T15:13:03;5.38;;;3.30;;
19848;SDS011;10085;51.120;6.956;2023-07-09T15:18:09;5.75;;;3.10;;
19848;SDS011;10085;51.120;6.956;2023-07-09T15:23:13;4.68;;;3.30;;
19848;SDS011;10085;51.120;6.956;2023-07-09T15:28:16;5.22;;;3.42;;
19848;SDS011;10085;51.120;6.956;2023-07-09T15:33:21;5.45;;;3.38;;
19848;SDS011;10085;51.120;6.956;2023-07-09T15:38:28;8.73;;;3.83;;
19848;SDS011;10085;51.120;6.956;2023-07-09T15:43:31;5.93;;;3.33;;
19848;SDS011;10085;51.120;6.956;2023-07-09T15:48:35;5.90;;;3.28;;
19848;SDS011;10085;51.120;6.956;2023-07-09T15:53:39;7.22;;;3.45;;
19848;SDS011;10085;51.120;6.956;2023-07-09T15:58:42;5.15;;;3.58;;
19848;SDS011;10085;51.120;6.956;2023-07-09T16:03:49;6.40;;;3.72;;
19848;SDS011;10085;51.120;6.956;2023-07-09T16:08:53;5.57;;;3.78;;
19848;SDS011;10085;51.120;6.956;2023-07-09T16:14:16;5.25;;;3.33;;
19848;SDS011;10085;51.120;6.956;2023-07-09T16:19:24;6.07;;;3.40;;
19848;SDS011;10085;51.120;6.956;2023-07-09T16:24:28;4.20;;;3.30;;
19848;SDS011;10085;51.120;6.956;2023-07-09T16:29:33;8.27;;;3.70;;
19848;SDS011;10085;51.120;6.956;2023-07-09T16:34:38;5.28;;;3.28;;
19848;SDS011;10085;51.120;6.956;2023-07-09T16:39:42;4.95;;;3.22;;
19848;SDS011;10085;51.120;6.956;2023-07-09T16:44:45;5.22;;;3.70;;
19848;SDS011;10085;51.120;6.956;2023-07-09T16:49:50;5.93;;;3.65;;
19848;SDS011;10085;51.120;6.956;2023-07-09T16:54:53;5.70;;;3.30;;
19848;SDS011;10085;51.120;6.956;2023-07-09T16:59:59;4.85;;;3.30;;
19848;SDS011;10085;51.120;6.956;2023-07-09T17:05:23;6.00;;;3.83;;
19848;SDS011;10085;51.120;6.956;2023-07-09T17:15:57;6.78;;;4.05;;
19848;SDS011;10085;51.120;6.956;2023-07-09T17:21:02;5.53;;;3.80;;
19848;SDS011;10085;51.120;6.956;2023-07-09T17:26:06;4.45;;;3.65;;
19848;SDS011;10085;51.120;6.956;2023-07-09T17:31:09;8.98;;;3.80;;
19848;SDS011;10085;51.120;6.956;2023-07-09T17:36:13;6.03;;;3.58;;
19848;SDS011;10085;51.120;6.956;2023-07-09T17:41:18;7.40;;;4.00;;
19848;SDS011;10085;51.120;6.956;2023-07-09T17:46:21;7.38;;;3.70;;
19848;SDS011;10085;51.120;6.956;2023-07-09T17:51:25;5.25;;;3.58;;
19848;SDS011;10085;51.120;6.956;2023-07-09T17:56:28;6.40;;;3.78;;
19848;SDS011;10085;51.120;6.956;2023-07-09T18:01:31;7.13;;;4.00;;
19848;SDS011;10085;51.120;6.956;2023-07-09T18:06:35;4.90;;;3.70;;
19848;SDS011;10085;51.120;6.956;2023-07-09T18:11:38;5.65;;;4.10;;
19848;SDS011;10085;51.120;6.956;2023-07-09T18:16:41;9.57;;;4.85;;
19848;SDS011;10085;51.120;6.956;2023-07-09T18:21:45;13.15;;;8.60;;
19848;SDS011;10085;51.120;6.956;2023-07-09T18:26:48;23.77;;;13.95;;
19848;SDS011;10085;51.120;6.956;2023-07-09T18:31:51;19.33;;;11.88;;
19848;SDS011;10085;51.120;6.956;2023-07-09T18:36:56;17.38;;;11.27;;
19848;SDS011;10085;51.120;6.956;2023-07-09T18:41:58;14.95;;;10.40;;
19848;SDS011;10085;51.120;6.956;2023-07-09T18:47:01;16.85;;;10.18;;
19848;SDS011;10085;51.120;6.956;2023-07-09T18:52:09;11.65;;;8.15;;
19848;SDS011;10085;51.120;6.956;2023-07-09T18:57:14;16.10;;;8.30;;
19848;SDS011;10085;51.120;6.956;2023-07-09T19:02:18;15.32;;;8.93;;
19848;SDS011;10085;51.120;6.956;2023-07-09T19:07:24;11.95;;;7.50;;
19848;SDS011;10085;51.120;6.956;2023-07-09T19:12:27;11.35;;;7.45;;
19848;SDS011;10085;51.120;6.956;2023-07-09T19:17:30;10.25;;;6.85;;
19848;SDS011;10085;51.120;6.956;2023-07-09T19:22:34;9.27;;;6.85;;
19848;SDS011;10085;51.120;6.956;2023-07-09T19:27:37;11.68;;;6.50;;
19848;SDS011;10085;51.120;6.956;2023-07-09T19:32:40;9.75;;;6.18;;
19848;SDS011;10085;51.120;6.956;2023-07-09T19:37:45;11.00;;;6.55;;
19848;SDS011;10085;51.120;6.956;2023-07-09T19:42:48;9.18;;;6.57;;
19848;SDS011;10085;51.120;6.956;2023-07-09T19:47:52;10.32;;;6.20;;
19848;SDS011;10085;51.120;6.956;2023-07-09T19:52:59;9.23;;;6.00;;
19848;SDS011;10085;51.120;6.956;2023-07-09T19:58:02;8.27;;;5.68;;
19848;SDS011;10085;51.120;6.956;2023-07-09T20:03:05;8.15;;;5.65;;
19848;SDS011;10085;51.120;6.956;2023-07-09T20:08:13;7.75;;;5.50;;
19848;SDS011;10085;51.120;6.956;2023-07-09T20:13:19;8.85;;;5.65;;
19848;SDS011;10085;51.120;6.956;2023-07-09T20:18:24;7.60;;;5.68;;
19848;SDS011;10085;51.120;6.956;2023-07-09T20:23:29;9.65;;;5.30;;
19848;SDS011;10085;51.120;6.956;2023-07-09T20:28:32;7.20;;;5.47;;
19848;SDS011;10085;51.120;6.956;2023-07-09T20:33:35;8.30;;;5.40;;
19848;SDS011;10085;51.120;6.956;2023-07-09T20:38:39;8.88;;;5.50;;
19848;SDS011;10085;51.120;6.956;2023-07-09T20:43:42;7.22;;;5.40;;
19848;SDS011;10085;51.120;6.956;2023-07-09T20:48:45;8.45;;;5.13;;
19848;SDS011;10085;51.120;6.956;2023-07-09T20:53:49;7.20;;;5.55;;
19848;SDS011;10085;51.120;6.956;2023-07-09T20:58:52;10.82;;;5.70;;
19848;SDS011;10085;51.120;6.956;2023-07-09T21:03:54;7.32;;;5.35;;
19848;SDS011;10085;51.120;6.956;2023-07-09T21:08:59;10.48;;;6.18;;
19848;SDS011;10085;51.120;6.956;2023-07-09T21:14:04;9.68;;;6.25;;
19848;SDS011;10085;51.120;6.956;2023-07-09T21:19:16;11.05;;;6.70;;
19848;SDS011;10085;51.120;6.956;2023-07-09T21:24:23;10.65;;;6.57;;
19848;SDS011;10085;51.120;6.956;2023-07-09T21:29:27;11.85;;;7.32;;
19848;SDS011;10085;51.120;6.956;2023-07-09T21:34:30;15.25;;;7.55;;
19848;SDS011;10085;51.120;6.956;2023-07-09T21:39:36;13.65;;;7.43;;
19848;SDS011;10085;51.120;6.956;2023-07-09T21:44:38;10.43;;;7.50;;
19848;SDS011;10085;51.120;6.956;2023-07-09T21:49:42;10.13;;;7.75;;
19848;SDS011;10085;51.120;6.956;2023-07-09T21:54:46;13.07;;;7.82;;
19848;SDS011;10085;51.120;6.956;2023-07-09T21:59:52;11.40;;;7.97;;
19848;SDS011;10085;51.120;6.956;2023-07-09T22:04:55;14.55;;;8.20;;
19848;SDS011;10085;51.120;6.956;2023-07-09T22:10:00;16.00;;;8.77;;
19848;SDS011;10085;51.120;6.956;2023-07-09T22:15:09;18.33;;;8.90;;
19848;SDS011;10085;51.120;6.956;2023-07-09T22:20:15;17.55;;;8.75;;
19848;SDS011;10085;51.120;6.956;2023-07-09T22:25:21;14.02;;;9.10;;
19848;SDS011;10085;51.120;6.956;2023-07-09T22:30:26;12.55;;;9.57;;
19848;SDS011;10085;51.120;6.956;2023-07-09T22:35:32;12.93;;;9.55;;
19848;SDS011;10085;51.120;6.956;2023-07-09T22:40:39;15.63;;;10.00;;
19848;SDS011;10085;51.120;6.956;2023-07-09T22:45:43;14.77;;;9.52;;
19848;SDS011;10085;51.120;6.956;2023-07-09T22:50:46;17.75;;;10.57;;
19848;SDS011;10085;51.120;6.956;2023-07-09T22:55:51;16.58;;;11.23;;
19848;SDS011;10085;51.120;6.956;2023-07-09T23:00:55;19.60;;;10.65;;
19848;SDS011;10085;51.120;6.956;2023-07-09T23:06:08;13.95;;;9.18;;
19848;SDS011;10085;51.120;6.956;2023-07-09T23:11:15;12.93;;;8.52;;
19848;SDS011;10085;51.120;6.956;2023-07-09T23:16:20;14.35;;;7.95;;
19848;SDS011;10085;51.120;6.956;2023-07-09T23:21:24;12.95;;;7.35;;
19848;SDS011;10085;51.120;6.956;2023-07-09T23:26:29;7.90;;;6.40;;
19848;SDS011;10085;51.120;6.956;2023-07-09T23:31:32;10.52;;;6.35;;
19848;SDS011;10085;51.120;6.956;2023-07-09T23:36:34;10.95;;;5.78;;
19848;SDS011;10085;51.120;6.956;2023-07-09T23:41:39;11.43;;;6.40;;
19848;SDS011;10085;51.120;6.956;2023-07-09T23:46:46;8.40;;;6.30;;
19848;SDS011;10085;51.120;6.956;2023-07-09T23:51:49;6.47;;;5.22;;
19848;SDS011;10085;51.120;6.956;2023-07-09T23:56:53;7.40;;;5.32;;
